createdAt,value
2022-08-29T00:00:38.064Z,0.00
2022-08-29T00:01:38.018Z,0.00
2022-08-29T00:02:38.088Z,0.00
2022-08-29T00:03:37.994Z,0.00
2022-08-29T00:04:38.028Z,0.00
2022-08-29T00:05:37.983Z,0.00
2022-08-29T00:06:37.995Z,0.00
2022-08-29T00:07:37.954Z,0.00
2022-08-29T00:08:37.949Z,0.00
2022-08-29T00:09:37.934Z,0.00
2022-08-29T00:10:37.929Z,0.00
2022-08-29T00:11:40.516Z,0.00
2022-08-29T00:12:39.022Z,0.00
2022-08-29T00:13:37.895Z,0.00
2022-08-29T00:14:37.878Z,0.00
2022-08-29T00:15:44.592Z,0.00
2022-08-29T00:16:38.899Z,0.00
2022-08-29T00:17:37.844Z,0.00
2022-08-29T00:18:37.846Z,0.00
2022-08-29T00:19:37.838Z,0.00
2022-08-29T00:20:37.819Z,0.00
2022-08-29T00:21:37.805Z,0.00
2022-08-29T00:22:37.792Z,0.00
2022-08-29T00:23:37.780Z,0.00
2022-08-29T00:24:37.782Z,0.00
2022-08-29T00:25:37.783Z,0.00
2022-08-29T00:26:37.788Z,0.00
2022-08-29T00:27:37.736Z,0.00
2022-08-29T00:28:37.723Z,0.00
2022-08-29T00:29:37.717Z,0.00
2022-08-29T00:30:37.701Z,0.00
2022-08-29T00:31:37.876Z,0.00
2022-08-29T00:32:37.692Z,0.00
2022-08-29T00:33:39.185Z,0.00
2022-08-29T00:34:37.657Z,0.00
2022-08-29T00:35:37.650Z,0.00
2022-08-29T00:36:37.779Z,0.00
2022-08-29T00:37:37.667Z,0.00
2022-08-29T00:38:37.624Z,0.00
2022-08-29T00:39:37.604Z,0.00
2022-08-29T00:40:37.730Z,0.00
2022-08-29T00:41:37.688Z,0.00
2022-08-29T00:42:37.587Z,0.00
2022-08-29T00:43:37.586Z,0.00
2022-08-29T00:44:37.550Z,0.00
2022-08-29T00:45:37.621Z,0.00
2022-08-29T00:46:37.531Z,0.00
2022-08-29T00:47:37.521Z,0.00
2022-08-29T00:48:37.505Z,0.00
2022-08-29T00:49:37.504Z,0.00
2022-08-29T00:50:37.483Z,0.00
2022-08-29T00:51:37.588Z,0.00
2022-08-29T00:52:37.462Z,0.00
2022-08-29T00:53:37.454Z,0.00
2022-08-29T00:54:37.443Z,0.00
2022-08-29T00:55:37.454Z,0.00
2022-08-29T00:56:37.500Z,0.00
2022-08-29T00:57:37.418Z,0.00
2022-08-29T00:58:37.412Z,0.00
2022-08-29T00:59:37.437Z,0.00
2022-08-29T01:00:37.409Z,0.00
2022-08-29T01:01:37.430Z,0.00
2022-08-29T01:02:40.433Z,0.00
2022-08-29T01:03:37.360Z,0.00
2022-08-29T01:04:38.337Z,0.00
2022-08-29T01:05:37.327Z,0.00
2022-08-29T01:06:37.393Z,0.00
2022-08-29T01:07:37.328Z,0.00
2022-08-29T01:08:37.290Z,0.00
2022-08-29T01:09:37.293Z,0.00
2022-08-29T01:10:37.264Z,0.00
2022-08-29T01:11:37.269Z,0.00
2022-08-29T01:12:37.258Z,0.00
2022-08-29T01:13:37.239Z,0.00
2022-08-29T01:14:38.737Z,0.00
2022-08-29T01:15:37.216Z,0.00
2022-08-29T01:16:37.454Z,0.00
2022-08-29T01:17:37.191Z,0.00
2022-08-29T01:18:37.194Z,0.00
2022-08-29T01:19:37.176Z,0.00
2022-08-29T01:20:37.185Z,0.00
2022-08-29T01:21:37.212Z,0.00
2022-08-29T01:22:37.146Z,0.00
2022-08-29T01:23:37.139Z,0.00
2022-08-29T01:24:37.151Z,0.00
2022-08-29T01:25:37.112Z,0.00
2022-08-29T01:26:37.104Z,0.00
2022-08-29T01:27:37.144Z,0.00
2022-08-29T01:28:37.080Z,0.00
2022-08-29T01:29:37.064Z,0.00
2022-08-29T01:30:37.054Z,0.00
2022-08-29T01:31:38.577Z,0.00
2022-08-29T01:32:38.043Z,0.00
2022-08-29T01:33:37.037Z,0.00
2022-08-29T01:34:37.009Z,0.00
2022-08-29T01:35:36.999Z,0.00
2022-08-29T01:36:37.000Z,0.00
2022-08-29T01:37:36.978Z,0.00
2022-08-29T01:38:36.964Z,0.00
2022-08-29T01:39:36.982Z,0.00
2022-08-29T01:40:37.028Z,0.00
2022-08-29T01:41:36.968Z,0.00
2022-08-29T01:42:37.380Z,0.00
2022-08-29T01:43:36.938Z,0.00
2022-08-29T01:44:36.904Z,0.00
2022-08-29T01:45:36.941Z,0.00
2022-08-29T01:46:36.943Z,0.00
2022-08-29T01:47:36.873Z,0.00
2022-08-29T01:48:36.859Z,0.00
2022-08-29T01:49:38.512Z,0.00
2022-08-29T01:50:36.842Z,0.00
2022-08-29T01:51:36.867Z,0.00
2022-08-29T01:52:36.842Z,0.00
2022-08-29T01:53:36.804Z,0.00
2022-08-29T01:54:36.804Z,0.00
2022-08-29T01:55:36.779Z,0.00
2022-08-29T01:56:36.772Z,0.00
2022-08-29T01:57:36.758Z,0.00
2022-08-29T01:58:36.778Z,0.00
2022-08-29T01:59:36.752Z,0.00
2022-08-29T02:00:36.801Z,0.00
2022-08-29T02:01:36.770Z,0.00
2022-08-29T02:02:36.829Z,0.00
2022-08-29T02:03:36.701Z,0.00
2022-08-29T02:04:36.764Z,0.00
2022-08-29T02:05:36.687Z,0.00
2022-08-29T02:06:36.660Z,0.00
2022-08-29T02:07:36.648Z,0.00
2022-08-29T02:08:36.639Z,0.00
2022-08-29T02:09:36.629Z,0.00
2022-08-29T02:10:36.656Z,0.00
2022-08-29T02:11:36.608Z,0.00
2022-08-29T02:12:36.604Z,0.00
2022-08-29T02:13:36.605Z,0.00
2022-08-29T02:14:36.579Z,0.00
2022-08-29T02:15:36.567Z,0.00
2022-08-29T02:16:36.640Z,0.00
2022-08-29T02:17:36.546Z,0.00
2022-08-29T02:18:36.532Z,0.00
2022-08-29T02:19:36.533Z,0.00
2022-08-29T02:20:36.513Z,0.00
2022-08-29T02:21:36.498Z,0.00
2022-08-29T02:22:36.545Z,0.00
2022-08-29T02:23:36.584Z,0.00
2022-08-29T02:24:36.469Z,0.00
2022-08-29T02:25:36.456Z,0.00
2022-08-29T02:26:36.448Z,0.00
2022-08-29T02:27:36.458Z,0.00
2022-08-29T02:28:36.429Z,0.00
2022-08-29T02:29:37.878Z,0.00
2022-08-29T02:30:36.401Z,0.00
2022-08-29T02:31:36.444Z,0.00
2022-08-29T02:32:36.384Z,0.00
2022-08-29T02:33:36.370Z,0.00
2022-08-29T02:34:36.395Z,0.00
2022-08-29T02:35:38.019Z,0.00
2022-08-29T02:36:37.337Z,0.00
2022-08-29T02:37:36.326Z,0.00
2022-08-29T02:38:36.319Z,0.00
2022-08-29T02:39:36.309Z,0.00
2022-08-29T02:40:36.365Z,0.00
2022-08-29T02:41:36.283Z,0.00
2022-08-29T02:42:36.278Z,0.00
2022-08-29T02:43:36.281Z,0.00
2022-08-29T02:44:36.250Z,0.00
2022-08-29T02:45:36.247Z,0.00
2022-08-29T02:46:36.345Z,0.00
2022-08-29T02:47:36.235Z,0.00
2022-08-29T02:48:36.207Z,0.00
2022-08-29T02:49:36.227Z,0.00
2022-08-29T02:50:36.186Z,0.00
2022-08-29T02:51:36.179Z,0.00
2022-08-29T02:52:37.370Z,0.00
2022-08-29T02:53:36.157Z,0.00
2022-08-29T02:54:36.143Z,0.00
2022-08-29T02:55:36.156Z,0.00
2022-08-29T02:56:36.122Z,0.00
2022-08-29T02:57:36.119Z,0.00
2022-08-29T02:58:36.121Z,0.00
2022-08-29T02:59:36.093Z,0.00
2022-08-29T03:00:36.140Z,0.00
2022-08-29T03:01:36.133Z,0.00
2022-08-29T03:02:36.079Z,0.00
2022-08-29T03:03:36.048Z,0.00
2022-08-29T03:04:36.053Z,0.00
2022-08-29T03:05:36.027Z,0.00
2022-08-29T03:06:36.019Z,0.00
2022-08-29T03:07:36.009Z,0.00
2022-08-29T03:08:36.012Z,0.00
2022-08-29T03:09:35.983Z,0.00
2022-08-29T03:10:35.996Z,0.00
2022-08-29T03:11:35.976Z,0.00
2022-08-29T03:12:35.951Z,0.00
2022-08-29T03:13:35.941Z,0.00
2022-08-29T03:14:35.941Z,0.00
2022-08-29T03:15:35.918Z,0.00
2022-08-29T03:16:36.004Z,0.00
2022-08-29T03:17:35.897Z,0.00
2022-08-29T03:18:35.882Z,0.00
2022-08-29T03:19:37.492Z,0.00
2022-08-29T03:20:35.860Z,0.00
2022-08-29T03:21:35.852Z,0.00
2022-08-29T03:22:35.854Z,0.00
2022-08-29T03:23:35.831Z,0.00
2022-08-29T03:24:35.820Z,0.00
2022-08-29T03:25:35.919Z,0.00
2022-08-29T03:26:35.797Z,0.00
2022-08-29T03:27:35.791Z,0.00
2022-08-29T03:28:35.808Z,0.00
2022-08-29T03:29:35.766Z,0.00
2022-08-29T03:30:35.811Z,0.00
2022-08-29T03:31:35.872Z,0.00
2022-08-29T03:32:35.733Z,0.00
2022-08-29T03:33:35.729Z,0.00
2022-08-29T03:34:35.734Z,0.00
2022-08-29T03:35:35.706Z,0.00
2022-08-29T03:36:35.693Z,0.00
2022-08-29T03:37:35.703Z,0.00
2022-08-29T03:38:35.669Z,0.00
2022-08-29T03:39:35.657Z,0.00
2022-08-29T03:40:35.743Z,0.00
2022-08-29T03:41:35.634Z,0.00
2022-08-29T03:42:35.644Z,0.00
2022-08-29T03:43:35.617Z,0.00
2022-08-29T03:44:35.605Z,0.00
2022-08-29T03:45:35.598Z,0.00
2022-08-29T03:46:35.631Z,0.00
2022-08-29T03:47:35.577Z,0.00
2022-08-29T03:48:35.582Z,0.00
2022-08-29T03:49:35.550Z,0.00
2022-08-29T03:50:35.552Z,0.00
2022-08-29T03:51:35.529Z,0.00
2022-08-29T03:52:35.601Z,0.00
2022-08-29T03:53:35.519Z,0.00
2022-08-29T03:54:35.509Z,0.00
2022-08-29T03:55:35.485Z,0.00
2022-08-29T03:56:35.479Z,0.00
2022-08-29T03:57:35.467Z,0.00
2022-08-29T03:58:35.512Z,0.00
2022-08-29T03:59:35.464Z,0.00
2022-08-29T04:00:35.430Z,0.00
2022-08-29T04:01:35.473Z,0.00
2022-08-29T04:02:35.460Z,0.00
2022-08-29T04:03:35.403Z,0.00
2022-08-29T04:04:35.417Z,0.00
2022-08-29T04:05:35.386Z,4.00
2022-08-29T04:06:35.385Z,4.00
2022-08-29T04:07:35.355Z,4.00
2022-08-29T04:08:35.347Z,4.00
2022-08-29T04:09:35.332Z,4.00
2022-08-29T04:10:35.368Z,8.00
2022-08-29T04:11:35.324Z,8.00
2022-08-29T04:12:35.310Z,8.00
2022-08-29T04:13:35.303Z,12.00
2022-08-29T04:14:35.371Z,12.00
2022-08-29T04:15:35.273Z,16.00
2022-08-29T04:16:35.323Z,20.00
2022-08-29T04:17:35.251Z,28.00
2022-08-29T04:18:35.241Z,28.00
2022-08-29T04:19:35.231Z,36.00
2022-08-29T04:20:35.232Z,44.00
2022-08-29T04:21:35.216Z,52.00
2022-08-29T04:22:35.227Z,60.00
2022-08-29T04:23:35.191Z,68.00
2022-08-29T04:24:35.176Z,80.00
2022-08-29T04:25:37.163Z,96.00
2022-08-29T04:26:37.274Z,112.00
2022-08-29T04:27:35.141Z,132.00
2022-08-29T04:28:35.128Z,148.00
2022-08-29T04:29:35.170Z,168.00
2022-08-29T04:30:35.123Z,192.00
2022-08-29T04:31:35.219Z,216.00
2022-08-29T04:32:35.095Z,240.00
2022-08-29T04:33:35.074Z,268.00
2022-08-29T04:34:35.065Z,300.00
2022-08-29T04:35:35.078Z,328.00
2022-08-29T04:36:35.068Z,360.00
2022-08-29T04:37:35.040Z,400.00
2022-08-29T04:38:35.023Z,432.00
2022-08-29T04:39:35.008Z,468.00
2022-08-29T04:40:35.112Z,500.00
2022-08-29T04:41:35.032Z,536.00
2022-08-29T04:42:34.982Z,564.00
2022-08-29T04:43:34.966Z,592.00
2022-08-29T04:44:34.956Z,624.00
2022-08-29T04:45:34.946Z,656.00
2022-08-29T04:46:35.043Z,692.00
2022-08-29T04:47:34.944Z,732.00
2022-08-29T04:48:34.927Z,776.00
2022-08-29T04:49:34.904Z,816.00
2022-08-29T04:50:34.893Z,856.00
2022-08-29T04:51:34.984Z,892.00
2022-08-29T04:52:34.877Z,936.00
2022-08-29T04:53:34.896Z,976.00
2022-08-29T04:54:34.876Z,1024.00
2022-08-29T04:55:34.840Z,1072.00
2022-08-29T04:56:34.865Z,1124.00
2022-08-29T04:57:34.927Z,1180.00
2022-08-29T04:58:34.814Z,1240.00
2022-08-29T04:59:34.797Z,1308.00
2022-08-29T05:00:34.825Z,1388.00
2022-08-29T05:01:34.906Z,1464.00
2022-08-29T05:02:34.802Z,1548.00
2022-08-29T05:03:34.767Z,1636.00
2022-08-29T05:04:34.746Z,1716.00
2022-08-29T05:05:34.731Z,1792.00
2022-08-29T05:06:34.775Z,1860.00
2022-08-29T05:07:34.714Z,1924.00
2022-08-29T05:08:34.709Z,1976.00
2022-08-29T05:09:34.705Z,2044.00
2022-08-29T05:10:34.676Z,2136.00
2022-08-29T05:11:34.662Z,2256.00
2022-08-29T05:12:34.657Z,2396.00
2022-08-29T05:13:34.644Z,2540.00
2022-08-29T05:14:34.688Z,2680.00
2022-08-29T05:15:34.698Z,2804.00
2022-08-29T05:16:34.609Z,2912.00
2022-08-29T05:17:34.597Z,3000.00
2022-08-29T05:18:34.628Z,3088.00
2022-08-29T05:19:35.466Z,3176.00
2022-08-29T05:20:34.590Z,3260.00
2022-08-29T05:21:35.668Z,3332.00
2022-08-29T05:22:34.551Z,3420.00
2022-08-29T05:23:34.665Z,3500.00
2022-08-29T05:24:34.528Z,3576.00
2022-08-29T05:25:34.515Z,3668.00
2022-08-29T05:26:34.523Z,3752.00
2022-08-29T05:27:34.489Z,3844.00
2022-08-29T05:28:34.484Z,3936.00
2022-08-29T05:29:34.482Z,4048.00
2022-08-29T05:30:35.500Z,4164.00
2022-08-29T05:31:34.512Z,4296.00
2022-08-29T05:32:34.445Z,4596.00
2022-08-29T05:33:34.461Z,7584.00
2022-08-29T05:34:35.264Z,11948.00
2022-08-29T05:35:34.404Z,11524.00
2022-08-29T05:36:34.401Z,12116.00
2022-08-29T05:37:34.384Z,14944.00
2022-08-29T05:38:34.378Z,16352.00
2022-08-29T05:39:34.383Z,16480.00
2022-08-29T05:40:34.439Z,17088.00
2022-08-29T05:41:38.403Z,17600.00
2022-08-29T05:42:34.328Z,18336.00
2022-08-29T05:43:34.336Z,19456.00
2022-08-29T05:44:35.447Z,20704.00
2022-08-29T05:45:34.410Z,20096.00
2022-08-29T05:46:34.350Z,20384.00
2022-08-29T05:47:34.275Z,21536.00
2022-08-29T05:48:34.268Z,20704.00
2022-08-29T05:49:34.261Z,20480.00
2022-08-29T05:50:34.246Z,21664.00
2022-08-29T05:51:38.931Z,22656.00
2022-08-29T05:52:35.225Z,21792.00
2022-08-29T05:53:34.212Z,22944.00
2022-08-29T05:54:34.221Z,24576.00
2022-08-29T05:55:34.205Z,25888.00
2022-08-29T05:56:34.175Z,26048.00
2022-08-29T05:57:34.179Z,25920.00
2022-08-29T05:58:34.161Z,26240.00
2022-08-29T05:59:34.143Z,28544.00
2022-08-29T06:00:34.228Z,29440.00
2022-08-29T06:01:34.124Z,30464.00
2022-08-29T06:02:34.258Z,31008.00
2022-08-29T06:03:34.275Z,30368.00
2022-08-29T06:04:34.157Z,33568.00
2022-08-29T06:05:34.080Z,34528.00
2022-08-29T06:06:34.312Z,34240.00
2022-08-29T06:07:34.060Z,35232.00
2022-08-29T06:08:34.058Z,37248.00
2022-08-29T06:09:34.033Z,37632.00
2022-08-29T06:10:34.049Z,36832.00
2022-08-29T06:11:34.022Z,36672.00
2022-08-29T06:12:34.028Z,36672.00
2022-08-29T06:13:33.995Z,37056.00
2022-08-29T06:14:33.991Z,39584.00
2022-08-29T06:15:34.038Z,39104.00
2022-08-29T06:16:33.986Z,37888.00
2022-08-29T06:17:33.964Z,38496.00
2022-08-29T06:18:36.211Z,41824.00
2022-08-29T06:19:34.044Z,42848.00
2022-08-29T06:20:33.921Z,42976.00
2022-08-29T06:21:33.911Z,40832.00
2022-08-29T06:22:39.577Z,40608.00
2022-08-29T06:23:34.889Z,42400.00
2022-08-29T06:24:33.875Z,40672.00
2022-08-29T06:25:41.080Z,39200.00
2022-08-29T06:26:34.864Z,39296.00
2022-08-29T06:27:33.844Z,40928.00
2022-08-29T06:28:33.849Z,44352.00
2022-08-29T06:29:36.280Z,46208.00
2022-08-29T06:30:34.844Z,47680.00
2022-08-29T06:31:33.803Z,48832.00
2022-08-29T06:32:33.792Z,47488.00
2022-08-29T06:33:33.775Z,44320.00
2022-08-29T06:34:33.775Z,44896.00
2022-08-29T06:35:33.796Z,48416.00
2022-08-29T06:36:33.762Z,48512.00
2022-08-29T06:37:33.733Z,47488.00
2022-08-29T06:38:33.728Z,47168.00
2022-08-29T06:39:33.817Z,46624.00
2022-08-29T06:40:33.735Z,48384.00
2022-08-29T06:41:33.823Z,50080.00
2022-08-29T06:42:33.679Z,51968.00
2022-08-29T06:43:33.666Z,51488.00
2022-08-29T06:44:33.692Z,53088.00
2022-08-29T06:45:33.663Z,56128.00
2022-08-29T06:46:33.738Z,60128.00
2022-08-29T06:47:33.623Z,56608.00
2022-08-29T06:48:33.802Z,54560.00
2022-08-29T06:49:33.609Z,55424.00
2022-08-29T06:50:33.611Z,56352.00
2022-08-29T06:51:33.605Z,57088.00
2022-08-29T06:52:33.573Z,57600.00
2022-08-29T06:53:37.311Z,59392.00
2022-08-29T06:54:33.556Z,59936.00
2022-08-29T06:55:33.582Z,59968.00
2022-08-29T06:56:33.547Z,62464.00
2022-08-29T06:57:33.513Z,69280.00
2022-08-29T06:58:33.512Z,70944.00
2022-08-29T06:59:33.507Z,70336.00
2022-08-29T07:00:33.512Z,67584.00
2022-08-29T07:01:33.592Z,64416.00
2022-08-29T07:02:33.572Z,64896.00
2022-08-29T07:03:33.448Z,67136.00
2022-08-29T07:04:33.446Z,64928.00
2022-08-29T07:05:33.426Z,62848.00
2022-08-29T07:06:33.437Z,61600.00
2022-08-29T07:07:33.403Z,67264.00
2022-08-29T07:08:33.412Z,67616.00
2022-08-29T07:09:33.388Z,69440.00
2022-08-29T07:10:33.385Z,67264.00
2022-08-29T07:11:35.597Z,69248.00
2022-08-29T07:12:34.369Z,69312.00
2022-08-29T07:13:33.339Z,70080.00
2022-08-29T07:14:33.334Z,71808.00
2022-08-29T07:15:33.350Z,70080.00
2022-08-29T07:16:33.310Z,69664.00
2022-08-29T07:17:33.327Z,69152.00
2022-08-29T07:18:33.290Z,67872.00
2022-08-29T07:19:33.286Z,70432.00
2022-08-29T07:20:33.271Z,72864.00
2022-08-29T07:21:33.265Z,73120.00
2022-08-29T07:22:33.302Z,73088.00
2022-08-29T07:23:33.288Z,74976.00
2022-08-29T07:24:33.245Z,75200.00
2022-08-29T07:25:33.211Z,74304.00
2022-08-29T07:26:33.211Z,74528.00
2022-08-29T07:27:33.209Z,75360.00
2022-08-29T07:28:34.023Z,77760.00
2022-08-29T07:29:33.171Z,82112.00
2022-08-29T07:30:33.268Z,78144.00
2022-08-29T07:31:33.162Z,78848.00
2022-08-29T07:32:33.265Z,82048.00
2022-08-29T07:33:35.125Z,84224.00
2022-08-29T07:34:33.133Z,83296.00
2022-08-29T07:35:33.109Z,80352.00
2022-08-29T07:36:34.448Z,77728.00
2022-08-29T07:37:33.093Z,77248.00
2022-08-29T07:38:33.093Z,76576.00
2022-08-29T07:39:33.089Z,81280.00
2022-08-29T07:40:33.120Z,86144.00
2022-08-29T07:41:33.048Z,85376.00
2022-08-29T07:42:33.052Z,82016.00
2022-08-29T07:43:33.071Z,78496.00
2022-08-29T07:44:34.429Z,78816.00
2022-08-29T07:45:33.052Z,83072.00
2022-08-29T07:46:32.988Z,89344.00
2022-08-29T07:47:32.987Z,95072.00
2022-08-29T07:48:33.011Z,94240.00
2022-08-29T07:49:41.064Z,98016.00
2022-08-29T07:50:33.945Z,95296.00
2022-08-29T07:51:32.950Z,93120.00
2022-08-29T07:52:32.930Z,90240.00
2022-08-29T07:53:32.916Z,93664.00
2022-08-29T07:54:32.899Z,97216.00
2022-08-29T07:55:32.894Z,99136.00
2022-08-29T07:56:37.581Z,99168.00
2022-08-29T07:57:33.869Z,94336.00
2022-08-29T07:58:33.854Z,96672.00
2022-08-29T07:59:32.864Z,92288.00
2022-08-29T08:00:32.840Z,92928.00
2022-08-29T08:01:32.875Z,94656.00
2022-08-29T08:02:32.883Z,93536.00
2022-08-29T08:03:32.802Z,98400.00
2022-08-29T08:04:32.812Z,101376.00
2022-08-29T08:05:32.782Z,99168.00
2022-08-29T08:06:34.437Z,100832.00
2022-08-29T08:07:32.811Z,102688.00
2022-08-29T08:08:32.765Z,98624.00
2022-08-29T08:09:32.735Z,92800.00
2022-08-29T08:10:32.733Z,94528.00
2022-08-29T08:11:32.721Z,95872.00
2022-08-29T08:12:32.770Z,92064.00
2022-08-29T08:13:33.407Z,98432.00
2022-08-29T08:14:34.820Z,104032.00
2022-08-29T08:15:32.675Z,106496.00
2022-08-29T08:16:32.872Z,106208.00
2022-08-29T08:17:32.664Z,104416.00
2022-08-29T08:18:32.643Z,101600.00
2022-08-29T08:19:32.656Z,100928.00
2022-08-29T08:20:32.637Z,97120.00
2022-08-29T08:21:32.608Z,98304.00
2022-08-29T08:22:32.648Z,102144.00
2022-08-29T08:23:32.619Z,100352.00
2022-08-29T08:24:32.592Z,103936.00
2022-08-29T08:25:32.580Z,105920.00
2022-08-29T08:26:32.578Z,104736.00
2022-08-29T08:27:32.545Z,100608.00
2022-08-29T08:28:32.544Z,99648.00
2022-08-29T08:29:32.530Z,96992.00
2022-08-29T08:30:35.543Z,95296.00
2022-08-29T08:31:32.688Z,87616.00
2022-08-29T08:32:32.820Z,87040.00
2022-08-29T08:33:34.867Z,87136.00
2022-08-29T08:34:35.771Z,85440.00
2022-08-29T08:35:32.558Z,88224.00
2022-08-29T08:36:32.472Z,92000.00
2022-08-29T08:37:32.456Z,101216.00
2022-08-29T08:38:32.423Z,95712.00
2022-08-29T08:39:32.408Z,95648.00
2022-08-29T08:40:32.440Z,102016.00
2022-08-29T08:41:32.520Z,95040.00
2022-08-29T08:42:32.417Z,104704.00
2022-08-29T08:43:32.367Z,107840.00
2022-08-29T08:44:35.005Z,105408.00
2022-08-29T08:45:32.356Z,114784.00
2022-08-29T08:46:32.390Z,108768.00
2022-08-29T08:47:33.376Z,114368.00
2022-08-29T08:48:32.378Z,117696.00
2022-08-29T08:49:32.308Z,122464.00
2022-08-29T08:50:32.298Z,121408.00
2022-08-29T08:51:32.297Z,115680.00
2022-08-29T08:52:32.271Z,115872.00
2022-08-29T08:53:32.301Z,123360.00
2022-08-29T08:54:32.269Z,122464.00
2022-08-29T08:55:32.246Z,114816.00
2022-08-29T08:56:32.256Z,116768.00
2022-08-29T08:57:32.260Z,119072.00
2022-08-29T08:58:32.248Z,122176.00
2022-08-29T08:59:32.200Z,117408.00
2022-08-29T09:00:32.178Z,114176.00
2022-08-29T09:01:32.299Z,118272.00
2022-08-29T09:02:32.242Z,109856.00
2022-08-29T09:03:32.157Z,115200.00
2022-08-29T09:04:32.162Z,118304.00
2022-08-29T09:05:32.126Z,116256.00
2022-08-29T09:06:32.119Z,119040.00
2022-08-29T09:07:32.104Z,115840.00
2022-08-29T09:08:32.187Z,115424.00
2022-08-29T09:09:32.099Z,109248.00
2022-08-29T09:10:32.070Z,106976.00
2022-08-29T09:11:32.069Z,115648.00
2022-08-29T09:12:32.059Z,116160.00
2022-08-29T09:13:32.055Z,113536.00
2022-08-29T09:14:32.059Z,109632.00
2022-08-29T09:15:32.967Z,123104.00
2022-08-29T09:16:32.405Z,122144.00
2022-08-29T09:17:32.129Z,122272.00
2022-08-29T09:18:31.991Z,113920.00
2022-08-29T09:19:32.020Z,109568.00
2022-08-29T09:20:31.968Z,112768.00
2022-08-29T09:21:44.911Z,118688.00
2022-08-29T09:22:33.299Z,118816.00
2022-08-29T09:23:31.936Z,121216.00
2022-08-29T09:24:31.971Z,122944.00
2022-08-29T09:25:31.924Z,124640.00
2022-08-29T09:26:31.902Z,125440.00
2022-08-29T09:27:31.912Z,124960.00
2022-08-29T09:28:31.889Z,117088.00
2022-08-29T09:29:31.871Z,126112.00
2022-08-29T09:30:31.896Z,119232.00
2022-08-29T09:31:31.891Z,118432.00
2022-08-29T09:32:31.837Z,122080.00
2022-08-29T09:33:31.829Z,123392.00
2022-08-29T09:34:50.495Z,128160.00
2022-08-29T09:35:32.853Z,126880.00
2022-08-29T09:36:31.797Z,122144.00
2022-08-29T09:37:31.801Z,118784.00
2022-08-29T09:38:31.782Z,128992.00
2022-08-29T09:39:31.760Z,121600.00
2022-08-29T09:40:31.822Z,126176.00
2022-08-29T09:41:31.813Z,125152.00
2022-08-29T09:42:31.741Z,122112.00
2022-08-29T09:43:31.730Z,116960.00
2022-08-29T09:44:31.735Z,128544.00
2022-08-29T09:45:31.772Z,126688.00
2022-08-29T09:46:31.708Z,134816.00
2022-08-29T09:47:31.731Z,126336.00
2022-08-29T09:48:35.379Z,136192.00
2022-08-29T09:49:31.661Z,143008.00
2022-08-29T09:50:31.653Z,136032.00
2022-08-29T09:51:31.650Z,133344.00
2022-08-29T09:52:31.659Z,128896.00
2022-08-29T09:53:31.624Z,132832.00
2022-08-29T09:54:31.614Z,131680.00
2022-08-29T09:55:31.594Z,130496.00
2022-08-29T09:56:31.587Z,127648.00
2022-08-29T09:57:31.586Z,132032.00
2022-08-29T09:58:34.258Z,129312.00
2022-08-29T09:59:32.562Z,115680.00
2022-08-29T10:00:31.563Z,119040.00
2022-08-29T10:01:31.609Z,121024.00
2022-08-29T10:02:31.628Z,123904.00
2022-08-29T10:03:31.508Z,120864.00
2022-08-29T10:04:31.538Z,120544.00
2022-08-29T10:05:31.485Z,127776.00
2022-08-29T10:06:31.496Z,135584.00
2022-08-29T10:07:31.470Z,125408.00
2022-08-29T10:08:31.461Z,129824.00
2022-08-29T10:09:31.443Z,139456.00
2022-08-29T10:10:31.547Z,134560.00
2022-08-29T10:11:31.465Z,133824.00
2022-08-29T10:12:31.419Z,139776.00
2022-08-29T10:13:31.393Z,138816.00
2022-08-29T10:14:31.395Z,127136.00
2022-08-29T10:15:50.054Z,131008.00
2022-08-29T10:16:32.413Z,132096.00
2022-08-29T10:17:31.367Z,119712.00
2022-08-29T10:18:31.354Z,125280.00
2022-08-29T10:19:33.129Z,133056.00
2022-08-29T10:20:31.323Z,120544.00
2022-08-29T10:21:31.328Z,118304.00
2022-08-29T10:22:31.299Z,105472.00
2022-08-29T10:23:31.331Z,116032.00
2022-08-29T10:24:31.279Z,128576.00
2022-08-29T10:25:31.266Z,123264.00
2022-08-29T10:26:31.273Z,114816.00
2022-08-29T10:27:31.245Z,120672.00
2022-08-29T10:28:31.236Z,117344.00
2022-08-29T10:29:31.991Z,113184.00
2022-08-29T10:30:31.222Z,126208.00
2022-08-29T10:31:31.225Z,125728.00
2022-08-29T10:32:31.202Z,112768.00
2022-08-29T10:33:31.192Z,114656.00
2022-08-29T10:34:31.177Z,117344.00
2022-08-29T10:35:31.180Z,101952.00
2022-08-29T10:36:31.146Z,103072.00
2022-08-29T10:37:31.140Z,99360.00
2022-08-29T10:38:31.134Z,106240.00
2022-08-29T10:39:31.112Z,99072.00
2022-08-29T10:40:31.167Z,104832.00
2022-08-29T10:41:31.133Z,117440.00
2022-08-29T10:42:31.092Z,121312.00
2022-08-29T10:43:31.085Z,109984.00
2022-08-29T10:44:31.076Z,113120.00
2022-08-29T10:45:31.085Z,110848.00
2022-08-29T10:46:31.071Z,113824.00
2022-08-29T10:47:31.029Z,120992.00
2022-08-29T10:48:31.035Z,117600.00
2022-08-29T10:49:31.056Z,122368.00
2022-08-29T10:50:46.388Z,120640.00
2022-08-29T10:51:31.981Z,115104.00
2022-08-29T10:52:30.970Z,109600.00
2022-08-29T10:53:30.979Z,106144.00
2022-08-29T10:54:30.954Z,99360.00
2022-08-29T10:55:30.947Z,101120.00
2022-08-29T10:56:30.935Z,100448.00
2022-08-29T10:57:30.916Z,105728.00
2022-08-29T10:58:30.917Z,97472.00
2022-08-29T10:59:30.914Z,105600.00
2022-08-29T11:00:30.886Z,97760.00
2022-08-29T11:01:31.035Z,105600.00
2022-08-29T11:02:30.866Z,103424.00
2022-08-29T11:03:30.862Z,112000.00
2022-08-29T11:04:30.858Z,111456.00
2022-08-29T11:05:30.835Z,114592.00
2022-08-29T11:06:30.877Z,109888.00
2022-08-29T11:07:30.928Z,106464.00
2022-08-29T11:08:30.827Z,112384.00
2022-08-29T11:09:30.791Z,116768.00
2022-08-29T11:10:30.782Z,117632.00
2022-08-29T11:11:30.773Z,116160.00
2022-08-29T11:12:30.766Z,108736.00
2022-08-29T11:13:30.759Z,113728.00
2022-08-29T11:14:30.802Z,115648.00
2022-08-29T11:15:30.739Z,103808.00
2022-08-29T11:16:30.782Z,110976.00
2022-08-29T11:17:30.707Z,113536.00
2022-08-29T11:18:30.697Z,113120.00
2022-08-29T11:19:30.706Z,122272.00
2022-08-29T11:20:30.672Z,127008.00
2022-08-29T11:21:30.697Z,122016.00
2022-08-29T11:22:30.654Z,118208.00
2022-08-29T11:23:30.661Z,119584.00
2022-08-29T11:24:34.337Z,119360.00
2022-08-29T11:25:30.638Z,122816.00
2022-08-29T11:26:30.611Z,110848.00
2022-08-29T11:27:31.281Z,115904.00
2022-08-29T11:28:30.664Z,113632.00
2022-08-29T11:29:30.581Z,115104.00
2022-08-29T11:30:30.569Z,116928.00
2022-08-29T11:31:30.581Z,112928.00
2022-08-29T11:32:30.585Z,120608.00
2022-08-29T11:33:31.545Z,111200.00
2022-08-29T11:34:30.527Z,116640.00
2022-08-29T11:35:30.577Z,110496.00
2022-08-29T11:36:30.504Z,109984.00
2022-08-29T11:37:30.491Z,122016.00
2022-08-29T11:38:30.482Z,116224.00
2022-08-29T11:39:30.467Z,120608.00
2022-08-29T11:41:31.533Z,119008.00
2022-08-29T11:43:31.426Z,112832.00
2022-08-29T11:44:30.417Z,113056.00
2022-08-29T11:45:37.324Z,111552.00
2022-08-29T11:46:31.439Z,112896.00
2022-08-29T11:47:30.409Z,109440.00
2022-08-29T11:48:30.399Z,106208.00
2022-08-29T11:49:30.364Z,111552.00
2022-08-29T11:50:30.350Z,110528.00
2022-08-29T11:51:30.344Z,109280.00
2022-08-29T11:52:30.329Z,108384.00
2022-08-29T11:53:30.337Z,108928.00
2022-08-29T11:54:30.327Z,116000.00
2022-08-29T11:55:30.322Z,111328.00
2022-08-29T11:56:30.289Z,111424.00
2022-08-29T11:57:30.281Z,113472.00
2022-08-29T11:58:30.270Z,104576.00
2022-08-29T11:59:30.313Z,108704.00
2022-08-29T12:00:30.268Z,110880.00
2022-08-29T12:01:30.250Z,107008.00
2022-08-29T12:02:30.244Z,114784.00
2022-08-29T12:03:30.580Z,116384.00
2022-08-29T12:04:30.232Z,114560.00
2022-08-29T12:05:30.197Z,121056.00
2022-08-29T12:06:30.252Z,117888.00
2022-08-29T12:07:30.191Z,112352.00
2022-08-29T12:08:36.934Z,113568.00
2022-08-29T12:09:31.204Z,107072.00
2022-08-29T12:10:30.140Z,108832.00
2022-08-29T12:11:30.139Z,106656.00
2022-08-29T12:12:30.133Z,107392.00
2022-08-29T12:13:30.111Z,108448.00